createdAt,value
2019-04-21T00:00:33.375Z,1020.44
2019-04-21T00:01:39.863Z,1020.32
2019-04-21T00:02:44.111Z,1020.36
2019-04-21T00:03:53.244Z,1020.35
2019-04-21T00:05:10.750Z,1020.34
2019-04-21T00:06:15.590Z,1020.28
2019-04-21T00:07:25.060Z,1020.30
2019-04-21T00:09:42.316Z,1020.29
2019-04-21T00:10:48.321Z,1020.31
2019-04-21T00:11:57.291Z,1020.23
2019-04-21T00:12:53.508Z,1020.19
2019-04-21T00:13:56.296Z,1020.19
2019-04-21T00:15:02.175Z,1020.20
2019-04-21T00:16:03.411Z,1020.17
2019-04-21T00:17:09.677Z,1020.15
2019-04-21T00:18:12.318Z,1020.13
2019-04-21T00:19:21.116Z,1020.19
2019-04-21T00:20:30.891Z,1020.17
2019-04-21T00:21:36.536Z,1020.14
2019-04-21T00:22:46.697Z,1020.17
2019-04-21T00:23:56.182Z,1020.17
2019-04-21T00:25:04.358Z,1020.06
2019-04-21T00:26:03.941Z,1020.06
2019-04-21T00:27:15.643Z,1020.06
2019-04-21T00:28:33.169Z,1020.08
2019-04-21T00:29:36.709Z,1019.97
2019-04-21T00:30:43.071Z,1019.99
2019-04-21T00:31:41.965Z,1020.01
2019-04-21T00:32:44.989Z,1019.94
2019-04-21T00:33:41.619Z,1019.97
2019-04-21T00:34:52.240Z,1020.02
2019-04-21T00:35:59.315Z,1020.03
2019-04-21T00:37:09.133Z,1019.95
2019-04-21T00:38:25.240Z,1019.98
2019-04-21T00:39:37.002Z,1019.97
2019-04-21T00:40:41.751Z,1019.89
2019-04-21T00:41:43.672Z,1019.88
2019-04-21T00:42:49.941Z,1019.89
2019-04-21T00:43:49.489Z,1019.83
2019-04-21T00:44:59.226Z,1019.79
2019-04-21T00:46:02.208Z,1019.81
2019-04-21T00:47:08.527Z,1019.85
2019-04-21T00:48:23.729Z,1019.80
2019-04-21T00:49:23.311Z,1019.80
2019-04-21T00:50:40.777Z,1019.80
2019-04-21T00:51:55.416Z,1019.78
2019-04-21T00:54:23.146Z,1019.80
2019-04-21T00:55:18.788Z,1019.76
2019-04-21T00:56:08.692Z,1019.80
2019-04-21T00:57:18.064Z,1019.80
2019-04-21T00:58:24.943Z,1019.76
2019-04-21T00:59:33.574Z,1019.79
2019-04-21T01:00:32.552Z,1019.76
2019-04-21T01:01:37.903Z,1019.74
2019-04-21T01:02:51.175Z,1019.71
2019-04-21T01:03:58.272Z,1019.71
2019-04-21T01:05:06.161Z,1019.63
2019-04-21T01:06:03.372Z,1019.68
2019-04-21T01:07:12.516Z,1019.63
2019-04-21T01:08:21.976Z,1019.63
2019-04-21T01:09:26.594Z,1019.64
2019-04-21T01:10:24.253Z,1019.64
2019-04-21T01:11:40.222Z,1019.59
2019-04-21T01:12:41.932Z,1019.59
2019-04-21T01:13:54.668Z,1019.58
2019-04-21T01:15:03.869Z,1019.55
2019-04-21T01:16:10.151Z,1019.59
2019-04-21T01:17:14.622Z,1019.52
2019-04-21T01:18:16.832Z,1019.51
2019-04-21T01:19:20.883Z,1019.52
2019-04-21T01:20:16.821Z,1019.50
2019-04-21T01:21:14.849Z,1019.45
2019-04-21T01:22:15.316Z,1019.49
2019-04-21T01:23:16.745Z,1019.47
2019-04-21T01:24:26.177Z,1019.47
2019-04-21T01:25:33.059Z,1019.47
2019-04-21T01:26:42.597Z,1019.45
2019-04-21T01:27:55.143Z,1019.44
2019-04-21T01:28:59.824Z,1019.43
2019-04-21T01:30:12.861Z,1019.45
2019-04-21T01:31:15.250Z,1019.42
2019-04-21T01:32:25.526Z,1019.46
2019-04-21T01:33:34.946Z,1019.43
2019-04-21T01:34:38.933Z,1019.52
2019-04-21T01:35:44.081Z,1019.48
2019-04-21T01:36:47.454Z,1019.44
2019-04-21T01:38:03.143Z,1019.45
2019-04-21T01:39:05.339Z,1019.42
2019-04-21T01:40:16.872Z,1019.43
2019-04-21T01:41:21.068Z,1019.42
2019-04-21T01:42:21.364Z,1019.39
2019-04-21T01:43:27.603Z,1019.39
2019-04-21T01:44:39.130Z,1019.38
2019-04-21T01:45:45.979Z,1019.39
2019-04-21T01:46:48.639Z,1019.33
2019-04-21T01:47:59.685Z,1019.37
2019-04-21T01:48:57.016Z,1019.36
2019-04-21T01:49:59.535Z,1019.37
2019-04-21T01:51:16.074Z,1019.37
2019-04-21T01:52:34.507Z,1019.30
2019-04-21T01:53:30.798Z,1019.31
2019-04-21T01:54:40.440Z,1019.37
2019-04-21T01:55:46.723Z,1019.27
2019-04-21T01:56:51.283Z,1019.31
2019-04-21T01:57:56.665Z,1019.27
2019-04-21T01:58:54.031Z,1019.24
2019-04-21T02:00:02.631Z,1019.31
2019-04-21T02:01:10.229Z,1019.32
2019-04-21T02:02:26.691Z,1019.28
2019-04-21T02:03:48.350Z,1019.27
2019-04-21T02:04:44.276Z,1019.25
2019-04-21T02:05:46.692Z,1019.29
2019-04-21T02:06:50.413Z,1019.21
2019-04-21T02:07:55.180Z,1019.18
2019-04-21T02:08:57.955Z,1019.20
2019-04-21T02:10:11.105Z,1019.21
2019-04-21T02:11:20.300Z,1019.18
2019-04-21T02:12:26.668Z,1019.15
2019-04-21T02:13:27.685Z,1019.21
2019-04-21T02:14:45.685Z,1019.14
2019-04-21T02:15:48.866Z,1019.11
2019-04-21T02:16:56.675Z,1019.11
2019-04-21T02:17:59.217Z,1019.10
2019-04-21T02:18:58.219Z,1019.06
2019-04-21T02:20:02.765Z,1019.03
2019-04-21T02:21:03.951Z,1019.07
2019-04-21T02:22:33.844Z,1019.03
2019-04-21T02:24:42.090Z,1019.02
2019-04-21T02:25:44.648Z,1018.96
2019-04-21T02:26:47.725Z,1019.07
2019-04-21T02:27:59.505Z,1019.01
2019-04-21T02:29:10.143Z,1018.98
2019-04-21T02:30:24.238Z,1019.01
2019-04-21T02:31:28.955Z,1019.08
2019-04-21T02:32:42.112Z,1019.03
2019-04-21T02:34:49.135Z,1018.99
2019-04-21T02:37:17.175Z,1018.91
2019-04-21T02:39:16.676Z,1019.02
2019-04-21T02:41:23.088Z,1019.00
2019-04-21T02:42:27.186Z,1018.96
2019-04-21T02:43:38.412Z,1018.99
2019-04-21T02:45:51.243Z,1018.88
2019-04-21T02:46:50.259Z,1018.96
2019-04-21T02:48:04.116Z,1018.91
2019-04-21T02:50:22.411Z,1018.91
2019-04-21T02:51:28.202Z,1018.87
2019-04-21T02:53:50.722Z,1018.89
2019-04-21T02:55:43.604Z,1018.80
2019-04-21T02:58:06.302Z,1018.80
2019-04-21T02:59:09.243Z,1018.83
2019-04-21T03:00:13.633Z,1018.81
2019-04-21T03:02:35.158Z,1018.76
2019-04-21T03:05:47.141Z,1018.74
2019-04-21T03:07:09.722Z,1018.68
2019-04-21T03:09:09.047Z,1018.67
2019-04-21T03:10:12.561Z,1018.71
2019-04-21T03:11:14.612Z,1018.67
2019-04-21T03:12:20.599Z,1018.68
2019-04-21T03:14:58.106Z,1018.58
2019-04-21T03:16:52.733Z,1018.56
2019-04-21T03:18:00.335Z,1018.56
2019-04-21T03:20:10.543Z,1018.54
2019-04-21T03:22:20.061Z,1018.51
2019-04-21T03:23:30.116Z,1018.46
2019-04-21T03:25:20.430Z,1018.51
2019-04-21T03:29:09.020Z,1018.44
2019-04-21T03:31:42.387Z,1018.40
2019-04-21T03:32:55.335Z,1018.40
2019-04-21T03:33:59.554Z,1018.39
2019-04-21T03:36:56.900Z,1018.43
2019-04-21T03:37:59.613Z,1018.43
2019-04-21T03:38:57.240Z,1018.43
2019-04-21T03:41:16.164Z,1018.34
2019-04-21T03:44:32.713Z,1018.41
2019-04-21T03:45:38.564Z,1018.38
2019-04-21T03:46:52.565Z,1018.37
2019-04-21T03:47:55.209Z,1018.43
2019-04-21T03:49:02.363Z,1018.38
2019-04-21T03:50:22.337Z,1018.39
2019-04-21T03:51:15.827Z,1018.41
2019-04-21T03:53:30.142Z,1018.32
2019-04-21T03:54:37.187Z,1018.35
2019-04-21T03:57:08.824Z,1018.25
2019-04-21T03:58:05.580Z,1018.28
2019-04-21T03:59:01.929Z,1018.31
2019-04-21T04:00:12.310Z,1018.25
2019-04-21T04:02:29.899Z,1018.24
2019-04-21T04:05:49.545Z,1018.17
2019-04-21T04:06:45.013Z,1018.22
2019-04-21T04:08:59.334Z,1018.26
2019-04-21T04:10:13.585Z,1018.22
2019-04-21T04:11:29.486Z,1018.19
2019-04-21T04:12:12.439Z,1018.26
2019-04-21T04:13:33.556Z,1018.26
2019-04-21T04:14:34.393Z,1018.28
2019-04-21T04:15:39.460Z,1018.24
2019-04-21T04:16:50.353Z,1018.26
2019-04-21T04:17:42.089Z,1018.23
2019-04-21T04:18:52.315Z,1018.23
2019-04-21T04:19:53.581Z,1018.27
2019-04-21T04:21:12.674Z,1018.28
2019-04-21T04:22:15.017Z,1018.20
2019-04-21T04:23:41.553Z,1018.22
2019-04-21T04:25:27.349Z,1018.25
2019-04-21T04:26:39.485Z,1018.28
2019-04-21T04:28:57.309Z,1018.27
2019-04-21T04:29:59.029Z,1018.29
2019-04-21T04:31:05.702Z,1018.24
2019-04-21T04:32:03.347Z,1018.23
2019-04-21T04:33:22.819Z,1018.27
2019-04-21T04:35:34.079Z,1018.22
2019-04-21T04:37:46.196Z,1018.23
2019-04-21T04:39:02.613Z,1018.18
2019-04-21T04:41:06.229Z,1018.20
2019-04-21T04:43:18.677Z,1018.26
2019-04-21T04:45:30.671Z,1018.13
2019-04-21T04:46:47.561Z,1018.14
2019-04-21T04:47:47.055Z,1018.21
2019-04-21T04:51:02.046Z,1018.22
2019-04-21T04:52:19.195Z,1018.20
2019-04-21T04:54:33.798Z,1018.20
2019-04-21T04:55:26.101Z,1018.18
2019-04-21T05:00:03.480Z,1018.17
2019-04-21T05:02:20.079Z,1018.19
2019-04-21T05:03:11.766Z,1018.21
2019-04-21T05:04:25.409Z,1018.20
2019-04-21T05:05:28.296Z,1018.15
2019-04-21T05:07:42.839Z,1018.17
2019-04-21T05:10:07.326Z,1018.12
2019-04-21T05:11:07.706Z,1018.15
2019-04-21T05:12:16.069Z,1018.13
2019-04-21T05:13:06.584Z,1018.17
2019-04-21T05:14:18.323Z,1018.10
2019-04-21T05:15:16.151Z,1018.13
2019-04-21T05:16:40.974Z,1018.11
2019-04-21T05:18:52.860Z,1018.15
2019-04-21T05:20:03.664Z,1018.14
2019-04-21T05:21:10.580Z,1018.09
2019-04-21T05:22:05.268Z,1018.22
2019-04-21T05:22:59.766Z,1018.19
2019-04-21T05:24:10.822Z,1018.15
2019-04-21T05:25:11.661Z,1018.14
2019-04-21T05:26:14.929Z,1018.14
2019-04-21T05:27:20.356Z,1018.19
2019-04-21T05:28:24.435Z,1018.18
2019-04-21T05:29:38.892Z,1018.13
2019-04-21T05:30:48.957Z,1018.12
2019-04-21T05:31:56.935Z,1018.16
2019-04-21T05:33:13.514Z,1018.16
2019-04-21T05:34:10.709Z,1018.17
2019-04-21T05:35:17.975Z,1018.08
2019-04-21T05:36:18.766Z,1018.11
2019-04-21T05:37:24.449Z,1018.15
2019-04-21T05:38:27.716Z,1018.14
2019-04-21T05:39:35.552Z,1018.16
2019-04-21T05:40:38.833Z,1018.08
2019-04-21T05:41:42.021Z,1018.10
2019-04-21T05:42:55.507Z,1018.11
2019-04-21T05:44:06.852Z,1018.07
2019-04-21T05:46:20.605Z,1018.07
2019-04-21T05:48:35.095Z,1018.08
2019-04-21T05:49:37.003Z,1018.01
2019-04-21T05:50:38.052Z,1018.10
2019-04-21T05:51:46.565Z,1018.05
2019-04-21T05:52:51.659Z,1018.06
2019-04-21T05:54:07.274Z,1018.04
2019-04-21T05:55:11.006Z,1018.05
2019-04-21T05:56:16.030Z,1018.05
2019-04-21T05:57:22.007Z,1018.02
2019-04-21T05:58:34.756Z,1018.05
2019-04-21T05:59:41.704Z,1017.95
2019-04-21T06:01:03.878Z,1018.00
2019-04-21T06:01:55.606Z,1018.03
2019-04-21T06:02:57.688Z,1017.98
2019-04-21T06:04:03.673Z,1017.98
2019-04-21T06:05:20.899Z,1018.00
2019-04-21T06:06:20.673Z,1018.01
2019-04-21T06:07:25.568Z,1018.06
2019-04-21T06:08:34.270Z,1018.03
2019-04-21T06:09:34.946Z,1017.98
2019-04-21T06:10:47.281Z,1018.01
2019-04-21T06:11:51.330Z,1017.99
2019-04-21T06:13:01.872Z,1018.02
2019-04-21T06:14:25.100Z,1017.97
2019-04-21T06:15:12.247Z,1017.93
2019-04-21T06:16:13.941Z,1018.00
2019-04-21T06:17:29.867Z,1017.99
2019-04-21T06:18:35.392Z,1018.01
2019-04-21T06:19:43.747Z,1018.03
2019-04-21T06:21:44.744Z,1018.01
2019-04-21T06:22:56.647Z,1017.99
2019-04-21T06:24:03.846Z,1017.97
2019-04-21T06:25:39.445Z,1017.98
2019-04-21T06:26:44.891Z,1017.95
2019-04-21T06:28:33.735Z,1017.90
2019-04-21T06:29:42.080Z,1017.92
2019-04-21T06:30:48.643Z,1017.89
2019-04-21T06:32:14.207Z,1017.88
2019-04-21T06:33:01.764Z,1017.86
2019-04-21T06:33:58.550Z,1017.83
2019-04-21T06:35:13.349Z,1017.78
2019-04-21T06:36:34.602Z,1017.84
2019-04-21T06:38:37.986Z,1017.80
2019-04-21T06:39:39.839Z,1017.87
2019-04-21T06:40:46.116Z,1017.80
2019-04-21T06:41:47.607Z,1017.78
2019-04-21T06:43:08.155Z,1017.79
2019-04-21T06:44:01.360Z,1017.78
2019-04-21T06:45:06.202Z,1017.77
2019-04-21T06:46:21.087Z,1017.80
2019-04-21T06:47:27.244Z,1017.74
2019-04-21T06:48:30.520Z,1017.80
2019-04-21T06:49:31.405Z,1017.79
2019-04-21T06:50:41.536Z,1017.73
2019-04-21T06:51:43.252Z,1017.72
2019-04-21T06:56:15.168Z,1017.77
2019-04-21T06:57:16.789Z,1017.82
2019-04-21T06:58:22.838Z,1017.75
2019-04-21T06:59:30.164Z,1017.71
2019-04-21T07:00:34.468Z,1017.69
2019-04-21T07:01:55.281Z,1017.69
2019-04-21T07:02:54.930Z,1017.67
2019-04-21T07:04:02.985Z,1017.70
2019-04-21T07:05:20.338Z,1017.73
2019-04-21T07:06:08.055Z,1017.72
2019-04-21T07:07:12.945Z,1017.69
2019-04-21T07:08:31.323Z,1017.77
2019-04-21T07:09:26.945Z,1017.72
2019-04-21T07:10:35.046Z,1017.71
2019-04-21T07:11:37.810Z,1017.73
2019-04-21T07:12:46.144Z,1017.69
2019-04-21T07:14:01.697Z,1017.71
2019-04-21T07:15:01.974Z,1017.74
2019-04-21T07:16:13.835Z,1017.75
2019-04-21T07:17:20.116Z,1017.71
2019-04-21T07:18:19.472Z,1017.70
2019-04-21T07:19:30.782Z,1017.66
2019-04-21T07:20:31.223Z,1017.65
2019-04-21T07:21:38.481Z,1017.65
2019-04-21T07:22:51.168Z,1017.59
2019-04-21T07:23:54.361Z,1017.61
2019-04-21T07:24:58.977Z,1017.60
2019-04-21T07:26:05.686Z,1017.58
2019-04-21T07:27:08.856Z,1017.59
2019-04-21T07:28:21.998Z,1017.58
2019-04-21T07:29:32.604Z,1017.63
2019-04-21T07:30:31.419Z,1017.53
2019-04-21T07:31:41.141Z,1017.61
2019-04-21T07:32:45.711Z,1017.59
2019-04-21T07:35:03.678Z,1017.63
2019-04-21T07:36:03.973Z,1017.61
2019-04-21T07:37:06.435Z,1017.57
2019-04-21T07:38:12.056Z,1017.59
2019-04-21T07:39:16.643Z,1017.58
2019-04-21T07:40:18.996Z,1017.56
2019-04-21T07:41:24.893Z,1017.54
2019-04-21T07:42:32.599Z,1017.61
2019-04-21T07:43:39.509Z,1017.52
2019-04-21T07:44:46.942Z,1017.50
2019-04-21T07:45:52.783Z,1017.53
2019-04-21T07:46:58.455Z,1017.53
2019-04-21T07:48:09.584Z,1017.49
2019-04-21T07:49:16.733Z,1017.54
2019-04-21T07:50:26.998Z,1017.49
2019-04-21T07:51:31.641Z,1017.45
2019-04-21T07:52:39.563Z,1017.47
2019-04-21T07:53:51.521Z,1017.45
2019-04-21T07:54:57.435Z,1017.51
2019-04-21T07:55:37.394Z,1017.46
2019-04-21T07:56:46.293Z,1017.47
2019-04-21T07:58:14.959Z,1017.47
2019-04-21T07:59:12.725Z,1017.50
2019-04-21T08:00:36.869Z,1017.47
2019-04-21T08:01:32.195Z,1017.41
2019-04-21T08:02:47.172Z,1017.40
2019-04-21T08:03:38.701Z,1017.41
2019-04-21T08:04:52.807Z,1017.48
2019-04-21T08:05:54.737Z,1017.42
2019-04-21T08:06:58.203Z,1017.38
2019-04-21T08:07:59.591Z,1017.37
2019-04-21T08:09:09.029Z,1017.39
2019-04-21T08:10:15.950Z,1017.36
2019-04-21T08:11:22.423Z,1017.32
2019-04-21T08:12:24.266Z,1017.30
2019-04-21T08:14:45.159Z,1017.29
2019-04-21T08:15:53.000Z,1017.29
2019-04-21T08:16:57.215Z,1017.28
2019-04-21T08:18:02.635Z,1017.29
2019-04-21T08:19:09.769Z,1017.27
2019-04-21T08:20:15.622Z,1017.25
2019-04-21T08:21:24.697Z,1017.22
2019-04-21T08:22:32.180Z,1017.27
2019-04-21T08:23:31.851Z,1017.24
2019-04-21T08:24:46.480Z,1017.24
2019-04-21T08:25:53.070Z,1017.22
2019-04-21T08:27:00.212Z,1017.20
2019-04-21T08:27:59.886Z,1017.20
2019-04-21T08:29:15.900Z,1017.12
2019-04-21T08:30:11.527Z,1017.14
2019-04-21T08:31:27.843Z,1017.20
2019-04-21T08:32:38.487Z,1017.16
2019-04-21T08:33:38.354Z,1017.08
2019-04-21T08:34:44.526Z,1017.06
2019-04-21T08:36:52.824Z,1017.04
2019-04-21T08:38:05.428Z,1017.01
2019-04-21T08:39:06.553Z,1017.09
2019-04-21T08:40:19.327Z,1016.99
2019-04-21T08:41:21.334Z,1017.05
2019-04-21T08:42:27.115Z,1017.06
2019-04-21T08:43:43.104Z,1017.02
2019-04-21T08:44:40.473Z,1017.07
2019-04-21T08:45:51.252Z,1017.06
2019-04-21T08:46:55.091Z,1017.01
2019-04-21T08:48:02.922Z,1017.00
2019-04-21T08:49:07.981Z,1016.93
2019-04-21T08:50:08.003Z,1017.00
2019-04-21T08:51:33.583Z,1017.03
2019-04-21T08:52:44.384Z,1016.99
2019-04-21T08:53:35.784Z,1017.01
2019-04-21T08:54:36.153Z,1016.97
2019-04-21T08:55:51.035Z,1017.03
2019-04-21T08:56:54.250Z,1016.94
2019-04-21T08:58:15.212Z,1016.95
2019-04-21T08:59:12.799Z,1016.92
2019-04-21T09:00:16.298Z,1016.88
2019-04-21T09:01:18.036Z,1016.87
2019-04-21T09:02:24.891Z,1016.93
2019-04-21T09:03:30.128Z,1016.89
2019-04-21T09:04:35.199Z,1016.88
2019-04-21T09:05:46.632Z,1016.85
2019-04-21T09:06:58.841Z,1016.89
2019-04-21T09:08:13.677Z,1016.84
2019-04-21T09:09:04.649Z,1016.83
2019-04-21T09:10:04.292Z,1016.84
2019-04-21T09:11:12.715Z,1016.86
2019-04-21T09:12:14.982Z,1016.81
2019-04-21T09:13:24.787Z,1016.71
2019-04-21T09:14:33.853Z,1016.75
2019-04-21T09:15:35.172Z,1016.73
2019-04-21T09:16:40.797Z,1016.75
2019-04-21T09:17:44.599Z,1016.72
2019-04-21T09:18:52.907Z,1016.77
2019-04-21T09:21:13.602Z,1016.68
2019-04-21T09:22:17.893Z,1016.64
2019-04-21T09:23:20.806Z,1016.68
2019-04-21T09:24:29.426Z,1016.63
2019-04-21T09:25:40.739Z,1016.65
2019-04-21T09:26:41.351Z,1016.61
2019-04-21T09:27:47.228Z,1016.57
2019-04-21T09:28:48.130Z,1016.55
2019-04-21T09:29:46.680Z,1016.55
2019-04-21T09:30:55.972Z,1016.52
2019-04-21T09:31:59.127Z,1016.49
2019-04-21T09:33:02.064Z,1016.55
2019-04-21T09:34:06.503Z,1016.46
2019-04-21T09:35:11.189Z,1016.48
2019-04-21T09:36:21.224Z,1016.50
2019-04-21T09:37:35.310Z,1016.46
2019-04-21T09:38:36.267Z,1016.45
2019-04-21T09:39:40.988Z,1016.46
2019-04-21T09:40:47.143Z,1016.39
2019-04-21T09:41:51.187Z,1016.40
2019-04-21T09:43:01.990Z,1016.40
2019-04-21T09:44:01.691Z,1016.39
2019-04-21T09:45:06.231Z,1016.41
2019-04-21T09:46:08.650Z,1016.38
2019-04-21T09:47:10.560Z,1016.39
2019-04-21T09:48:18.614Z,1016.41
2019-04-21T09:49:23.871Z,1016.35
2019-04-21T09:50:26.535Z,1016.33
2019-04-21T09:51:28.047Z,1016.25
2019-04-21T09:52:37.539Z,1016.27
2019-04-21T09:53:38.103Z,1016.29
2019-04-21T09:54:52.067Z,1016.32
2019-04-21T09:55:54.259Z,1016.26
2019-04-21T09:57:00.262Z,1016.18
2019-04-21T09:58:10.077Z,1016.23
2019-04-21T09:59:13.263Z,1016.20
2019-04-21T10:00:19.509Z,1016.21
2019-04-21T10:01:28.817Z,1016.16
2019-04-21T10:02:35.236Z,1016.19
2019-04-21T10:03:41.242Z,1016.07
2019-04-21T10:04:40.058Z,1016.15
2019-04-21T10:05:41.606Z,1016.16
2019-04-21T10:06:43.164Z,1016.18
2019-04-21T10:07:44.257Z,1016.13
2019-04-21T10:08:51.547Z,1016.12
2019-04-21T10:09:52.408Z,1016.14
2019-04-21T10:10:52.994Z,1016.14
2019-04-21T10:11:54.760Z,1016.13
2019-04-21T10:12:56.284Z,1016.13
2019-04-21T10:13:56.772Z,1016.14
2019-04-21T10:14:57.424Z,1016.08
2019-04-21T10:16:00.803Z,1016.05
2019-04-21T10:17:03.000Z,1016.14
2019-04-21T10:18:03.490Z,1016.15
2019-04-21T10:19:04.604Z,1016.03
2019-04-21T10:20:05.229Z,1016.05
2019-04-21T10:21:05.764Z,1016.01
2019-04-21T10:22:06.215Z,1016.08
2019-04-21T10:23:07.204Z,1015.97
2019-04-21T10:24:08.277Z,1015.99
2019-04-21T10:25:08.762Z,1015.90
2019-04-21T10:26:10.402Z,1015.91
2019-04-21T10:27:12.893Z,1015.87
2019-04-21T10:28:15.015Z,1015.86
2019-04-21T10:29:22.848Z,1015.86
2019-04-21T10:30:22.502Z,1015.81
2019-04-21T10:31:23.065Z,1015.79
2019-04-21T10:32:25.277Z,1015.86
2019-04-21T10:33:26.311Z,1015.76
2019-04-21T10:34:27.330Z,1015.73
2019-04-21T10:35:28.913Z,1015.77
2019-04-21T10:36:29.422Z,1015.70
2019-04-21T10:37:44.128Z,1015.70
2019-04-21T10:38:42.639Z,1015.70
2019-04-21T10:39:42.664Z,1015.71
2019-04-21T10:40:43.463Z,1015.69
2019-04-21T10:41:43.936Z,1015.70
2019-04-21T10:42:45.694Z,1015.67
2019-04-21T10:43:47.109Z,1015.66
2019-04-21T10:44:47.585Z,1015.63
2019-04-21T10:45:48.834Z,1015.58
2019-04-21T10:46:51.835Z,1015.61
2019-04-21T10:47:52.904Z,1015.66
2019-04-21T10:48:54.816Z,1015.60
2019-04-21T10:49:55.429Z,1015.57
2019-04-21T10:50:57.019Z,1015.53
2019-04-21T10:51:57.557Z,1015.54
2019-04-21T10:52:58.708Z,1015.55
2019-04-21T10:53:59.836Z,1015.51
2019-04-21T10:55:20.737Z,1015.48
2019-04-21T10:56:16.927Z,1015.51
2019-04-21T10:57:14.531Z,1015.44
2019-04-21T10:58:16.209Z,1015.40
2019-04-21T10:59:16.798Z,1015.40
2019-04-21T11:00:18.731Z,1015.43
2019-04-21T11:01:19.414Z,1015.34
2019-04-21T11:02:21.071Z,1015.32
2019-04-21T11:03:22.851Z,1015.34
2019-04-21T11:04:28.995Z,1015.30
2019-04-21T11:05:30.544Z,1015.29
2019-04-21T11:06:31.061Z,1015.24
2019-04-21T11:07:35.821Z,1015.20
2019-04-21T11:08:43.443Z,1015.16
2019-04-21T11:09:44.639Z,1015.21
2019-04-21T11:10:45.699Z,1015.18
2019-04-21T11:11:48.266Z,1015.14
2019-04-21T11:12:50.812Z,1015.13
2019-04-21T11:13:52.525Z,1015.13
2019-04-21T11:14:53.545Z,1015.17
2019-04-21T11:15:55.178Z,1015.10
2019-04-21T11:16:56.565Z,1015.09
2019-04-21T11:17:58.191Z,1015.05
2019-04-21T11:18:59.893Z,1015.03
2019-04-21T11:20:01.111Z,1015.05
2019-04-21T11:21:02.844Z,1015.03
2019-04-21T11:22:03.547Z,1015.03
2019-04-21T11:23:05.985Z,1014.98
2019-04-21T11:24:06.488Z,1014.96
2019-04-21T11:25:07.045Z,1014.96
2019-04-21T11:26:07.493Z,1014.98
2019-04-21T11:27:08.799Z,1014.93
2019-04-21T11:28:09.323Z,1014.94
2019-04-21T11:29:10.817Z,1014.92
2019-04-21T11:30:11.761Z,1014.86
2019-04-21T11:31:13.250Z,1014.87
2019-04-21T11:32:14.757Z,1014.81
2019-04-21T11:33:15.446Z,1014.83
2019-04-21T11:34:16.019Z,1014.82
2019-04-21T11:35:17.154Z,1014.88
2019-04-21T11:36:17.652Z,1014.80
2019-04-21T11:37:18.111Z,1014.85
2019-04-21T11:38:23.270Z,1014.90
2019-04-21T11:39:34.793Z,1014.91
2019-04-21T11:40:31.858Z,1014.87
2019-04-21T11:41:33.914Z,1014.81
2019-04-21T11:42:35.584Z,1014.82
2019-04-21T11:43:37.044Z,1014.76
2019-04-21T11:44:37.617Z,1014.76
2019-04-21T11:45:38.170Z,1014.68
2019-04-21T11:46:38.618Z,1014.70
2019-04-21T11:47:40.595Z,1014.70
2019-04-21T11:48:42.121Z,1014.72
2019-04-21T11:49:43.163Z,1014.67
2019-04-21T11:50:43.662Z,1014.66
2019-04-21T11:51:44.990Z,1014.65
2019-04-21T11:52:45.493Z,1014.63
2019-04-21T11:53:46.587Z,1014.66
2019-04-21T11:54:47.072Z,1014.64
2019-04-21T11:55:49.950Z,1014.61
2019-04-21T11:56:52.849Z,1014.65
2019-04-21T11:57:54.897Z,1014.65
2019-04-21T11:58:57.777Z,1014.63
2019-04-21T11:59:59.610Z,1014.66
2019-04-21T12:01:00.313Z,1014.57
2019-04-21T12:02:01.552Z,1014.56
2019-04-21T12:03:02.045Z,1014.55
2019-04-21T12:04:03.413Z,1014.48
2019-04-21T12:05:03.944Z,1014.49
2019-04-21T12:06:05.637Z,1014.44
2019-04-21T12:07:07.186Z,1014.46
2019-04-21T12:08:21.332Z,1014.47
2019-04-21T12:09:14.710Z,1014.44
2019-04-21T12:10:15.558Z,1014.46
2019-04-21T12:11:17.635Z,1014.47
2019-04-21T12:12:19.150Z,1014.40
2019-04-21T12:13:20.388Z,1014.37
2019-04-21T12:14:21.764Z,1014.38
2019-04-21T12:15:22.944Z,1014.34
2019-04-21T12:16:23.505Z,1014.36
2019-04-21T12:17:23.933Z,1014.39
2019-04-21T12:18:27.807Z,1014.34
2019-04-21T12:19:30.444Z,1014.30
2019-04-21T12:20:31.083Z,1014.35
2019-04-21T12:21:48.194Z,1014.26
2019-04-21T12:22:39.093Z,1014.22
2019-04-21T12:23:40.539Z,1014.27
2019-04-21T12:24:41.024Z,1014.25
2019-04-21T12:25:41.565Z,1014.31
2019-04-21T12:26:42.219Z,1014.21
2019-04-21T12:27:43.873Z,1014.21
2019-04-21T12:28:44.346Z,1014.18
2019-04-21T12:29:46.104Z,1014.13
2019-04-21T12:30:47.385Z,1014.18
2019-04-21T12:31:48.009Z,1014.08
2019-04-21T12:32:48.652Z,1014.15
2019-04-21T12:33:49.800Z,1014.14
2019-04-21T12:34:51.838Z,1014.14
2019-04-21T12:35:53.802Z,1014.15
2019-04-21T12:36:54.963Z,1014.12
2019-04-21T12:37:56.410Z,1014.07
2019-04-21T12:39:00.018Z,1014.06
2019-04-21T12:40:03.500Z,1014.28
2019-04-21T12:41:04.612Z,1014.28
2019-04-21T12:42:05.171Z,1014.29
2019-04-21T12:43:06.508Z,1014.41
2019-04-21T12:44:07.085Z,1014.36
2019-04-21T12:45:07.650Z,1014.33
2019-04-21T12:46:08.161Z,1014.37
2019-04-21T12:47:09.992Z,1014.38
2019-04-21T12:48:10.593Z,1014.31
2019-04-21T12:49:11.817Z,1014.35
2019-04-21T12:50:12.865Z,1014.30
2019-04-21T12:51:13.496Z,1014.33
2019-04-21T12:52:14.002Z,1014.30
2019-04-21T12:53:15.991Z,1014.31
2019-04-21T12:54:17.905Z,1014.30
2019-04-21T12:55:19.610Z,1014.32
2019-04-21T12:56:20.312Z,1014.31
2019-04-21T12:58:46.982Z,1013.95
2019-04-21T12:59:50.830Z,1014.00
2019-04-21T13:00:52.602Z,1013.89
2019-04-21T13:01:54.927Z,1013.83
2019-04-21T13:02:58.058Z,1013.93
2019-04-21T13:04:00.060Z,1013.74
2019-04-21T13:05:01.938Z,1013.78
2019-04-21T13:06:03.492Z,1013.75
2019-04-21T13:07:04.075Z,1013.71
2019-04-21T13:08:07.157Z,1013.73
2019-04-21T13:09:11.161Z,1013.69
2019-04-21T13:10:16.224Z,1013.66
2019-04-21T13:11:19.107Z,1013.57
2019-04-21T13:12:22.773Z,1013.60
2019-04-21T13:13:23.934Z,1013.58
2019-04-21T13:14:26.143Z,1013.57
2019-04-21T13:15:29.251Z,1013.58
2019-04-21T13:16:31.653Z,1013.50
2019-04-21T13:17:35.290Z,1013.50
2019-04-21T13:18:37.847Z,1013.49
2019-04-21T13:19:41.123Z,1013.48
2019-04-21T13:20:44.529Z,1013.47
2019-04-21T13:21:47.812Z,1013.36
2019-04-21T13:22:50.362Z,1013.35
2019-04-21T13:23:52.754Z,1013.34
2019-04-21T13:24:55.595Z,1013.26
2019-04-21T13:25:57.671Z,1013.35
2019-04-21T13:27:00.219Z,1013.31
2019-04-21T13:28:02.916Z,1013.28
2019-04-21T13:29:03.393Z,1013.30
2019-04-21T13:30:04.302Z,1013.27
2019-04-21T13:31:04.858Z,1013.16
2019-04-21T13:32:06.847Z,1013.21
2019-04-21T13:33:09.164Z,1013.12
2019-04-21T13:34:10.493Z,1013.13
2019-04-21T13:35:11.110Z,1013.13
2019-04-21T13:36:11.846Z,1013.10
2019-04-21T13:37:12.376Z,1013.14
2019-04-21T13:38:24.263Z,1013.11
2019-04-21T13:39:50.291Z,1013.04
2019-04-21T13:40:45.027Z,1013.00
2019-04-21T13:41:42.864Z,1013.04
2019-04-21T13:42:44.453Z,1013.01
2019-04-21T13:43:45.499Z,1012.91
2019-04-21T13:44:47.156Z,1012.93
2019-04-21T13:45:47.848Z,1012.99
2019-04-21T13:46:49.178Z,1013.00
2019-04-21T13:47:50.407Z,1012.97
2019-04-21T13:48:52.779Z,1013.00
2019-04-21T13:49:56.057Z,1012.93
2019-04-21T13:51:01.525Z,1012.93
2019-04-21T13:52:02.681Z,1013.05
2019-04-21T13:53:04.851Z,1012.97
2019-04-21T13:54:05.422Z,1012.99
2019-04-21T13:55:05.879Z,1013.01
2019-04-21T13:56:06.908Z,1013.00
2019-04-21T13:57:08.353Z,1012.88
2019-04-21T13:58:10.297Z,1012.86
2019-04-21T13:59:10.926Z,1012.83
2019-04-21T14:00:13.252Z,1012.88
2019-04-21T14:01:13.952Z,1012.81
2019-04-21T14:02:16.353Z,1012.85
2019-04-21T14:03:19.895Z,1012.82
2019-04-21T14:04:23.394Z,1012.78
2019-04-21T14:05:24.498Z,1012.73
2019-04-21T14:06:27.164Z,1012.65
2019-04-21T14:07:28.060Z,1012.69
2019-04-21T14:08:29.604Z,1012.71
2019-04-21T14:09:40.381Z,1012.63
2019-04-21T14:10:37.660Z,1012.60
2019-04-21T14:11:39.276Z,1012.62
2019-04-21T14:12:40.516Z,1012.59
2019-04-21T14:13:42.594Z,1012.64
2019-04-21T14:14:44.103Z,1012.62
2019-04-21T14:15:47.617Z,1012.58
2019-04-21T14:16:49.933Z,1012.62